Hlavní strana
METAR-TAF:

METAR-TAF

Letiště :

NWS Office

Pohnpei, Mikronésie

zeměpisná šířka: 06-58N, zeměpisná délka: 158-13E, výška: 39 m

Aktuální stav počasí

Zpráva byla vytvořena před 1 hodinou a 7 minutami, v 23:52 UTC
Severovýchodní vítr 5 kt
Teplota 30°C
Vlhkost vzduchu 70%
Tlak 1012 hPa
Viditelnost: 24.1 km
Skoro jasno ve výšce 1800 ft
Oblačno až skoro zataženo ve výšce 30000 ft

METAR: PTTP 082352Z 05005KT 15SM FEW018 BKN300 30/24 A2988 RMK SLP117 8/101 T03000242 10300 20227 50007

Čas: 11:59 (00:59 UTC)


TAF: chybějící

Stav a předpovědi počasí z více než 4 000 letišť (zprávy METAR a TAF).

Červené a žluté tečky na mapě představují dostupné meteorologické stanice.

Když kurzor umístíte na tečku, zobrazí se název stanice.

Pak kliknutím zobrazíte stav a předpověď počasí.

Chcete-li změnit mapu, kliknutím na zelené tlačítko se znaménkem +mapu přiblížíte, kliknutím na zelené tlačítko se znaménkem – mapu oddálíte a kliknutím na zelené šipky přejdete na sousední mapy.


METAR-TAF: